Time;durP1;ratioP1;P1;durP2;ratioP2;P2;SDS_P1;SDS_P2;PMS_P1;PMS_P2;Temp;Humidity;BMP_temperature;BMP_pressure;BME280_temperature;BME280_humidity;BME280_pressure;Samples;Min_cycle;Max_cycle;Signal;HPM_P1;HPM_P2
2021/09/29 00:01:17;;;;;;;4.10;2.53;;;;;;;13.91;100.00;96922.63;5094453;28;20235;-77
2021/09/29 00:03:46;;;;;;;2.17;2.07;;;;;;;13.92;100.00;96922.47;5094591;28;20203;-77
2021/09/29 00:06:14;;;;;;;2.53;2.33;;;;;;;13.92;100.00;96925.09;5094299;28;20220;-78
2021/09/29 00:08:41;;;;;;;2.67;2.40;;;;;;;13.97;100.00;96925.47;5094465;28;20199;-77
2021/09/29 00:11:08;;;;;;;2.27;2.17;;;;;;;13.75;100.00;96923.44;5094049;28;20235;-77
2021/09/29 00:13:36;;;;;;;2.83;2.53;;;;;;;13.60;100.00;96927.69;5094394;28;20226;-77
2021/09/29 00:16:03;;;;;;;3.10;2.80;;;;;;;13.70;100.00;96931.03;5094173;28;20198;-77
2021/09/29 00:18:30;;;;;;;2.90;2.60;;;;;;;13.75;100.00;96921.63;5094083;28;20219;-78
2021/09/29 00:20:59;;;;;;;3.07;2.57;;;;;;;13.83;100.00;96920.00;5094443;28;20204;-77
2021/09/29 00:23:26;;;;;;;4.90;2.97;;;;;;;13.79;100.00;96915.03;5094112;28;20238;-77
2021/09/29 00:25:53;;;;;;;2.90;2.70;;;;;;;13.86;100.00;96912.56;5094019;28;20232;-78
2021/09/29 00:28:20;;;;;;;3.33;3.13;;;;;;;13.64;100.00;96918.47;5093573;28;20196;-78
2021/09/29 00:31:02;;;;;;;2.50;2.30;;;;;;;13.59;100.00;96918.13;5094318;28;20196;-78
2021/09/29 00:33:29;;;;;;;3.23;2.93;;;;;;;13.72;100.00;96910.56;5093986;28;20267;-78
2021/09/29 00:35:58;;;;;;;4.83;2.80;;;;;;;13.55;100.00;96923.72;5093880;28;20192;-78
2021/09/29 00:38:25;;;;;;;3.40;2.97;;;;;;;13.57;100.00;96913.00;5093384;28;20195;-78
2021/09/29 00:40:52;;;;;;;3.60;3.27;;;;;;;13.48;100.00;96909.53;5094072;28;20228;-78
2021/09/29 00:43:20;;;;;;;3.20;2.90;;;;;;;13.54;100.00;96900.97;5093514;28;20196;-78
2021/09/29 00:45:47;;;;;;;3.33;3.13;;;;;;;13.34;100.00;96904.88;5093517;28;20227;-77
2021/09/29 00:48:14;;;;;;;3.10;2.77;;;;;;;13.24;100.00;96907.63;5092004;28;20283;-78
2021/09/29 00:50:42;;;;;;;3.80;3.40;;;;;;;13.20;100.00;96911.53;5093563;28;20579;-78
2021/09/29 00:53:11;;;;;;;3.90;3.30;;;;;;;13.12;100.00;96911.50;5093345;28;20200;-77
2021/09/29 00:55:39;;;;;;;4.10;3.17;;;;;;;13.35;100.00;96910.97;5093451;28;20188;-77
2021/09/29 00:58:06;;;;;;;3.60;3.07;;;;;;;13.56;100.00;96900.78;5092873;28;20287;-78
2021/09/29 01:00:33;;;;;;;6.13;3.83;;;;;;;13.77;100.00;96905.63;5093366;28;20204;-78
2021/09/29 01:03:01;;;;;;;4.90;3.93;;;;;;;13.74;100.00;96900.66;5093113;28;20196;-78
2021/09/29 01:05:30;;;;;;;3.97;3.67;;;;;;;13.76;100.00;96901.31;5093091;28;20264;-77
2021/09/29 01:08:02;;;;;;;4.13;3.73;;;;;;;13.68;100.00;96898.66;5092736;28;20196;-78
2021/09/29 01:10:37;;;;;;;3.70;3.17;;;;;;;13.66;100.00;96898.84;5093503;28;20185;-77
2021/09/29 01:13:12;;;;;;;3.53;3.23;;;;;;;13.60;100.00;96896.00;5092995;28;20188;-78
2021/09/29 01:15:46;;;;;;;3.37;3.07;;;;;;;13.67;100.00;96892.56;5092991;28;20241;-77
2021/09/29 01:18:15;;;;;;;3.80;3.50;;;;;;;13.62;100.00;96891.41;5092898;28;20224;-77
2021/09/29 01:20:45;;;;;;;3.73;3.43;;;;;;;13.72;100.00;96892.91;5092894;28;20291;-78
2021/09/29 01:23:38;;;;;;;3.50;3.20;;;;;;;13.65;100.00;96897.19;5093051;28;20582;-78
2021/09/29 01:26:13;;;;;;;5.30;3.53;;;;;;;13.68;100.00;96893.38;5092852;28;20255;-78
2021/09/29 01:28:46;;;;;;;3.37;3.13;;;;;;;13.72;100.00;96900.81;5092704;28;20711;-77
2021/09/29 01:31:15;;;;;;;3.30;2.97;;;;;;;13.67;100.00;96894.38;5092589;28;20224;-77
2021/09/29 01:33:44;;;;;;;3.53;2.70;;;;;;;13.48;100.00;96903.41;5092882;28;20202;-78
2021/09/29 01:36:12;;;;;;;3.07;2.87;;;;;;;13.49;100.00;96897.97;5093018;28;20275;-78
2021/09/29 01:38:42;;;;;;;3.67;2.40;;;;;;;13.31;100.00;96894.63;5092777;28;20223;-77
2021/09/29 01:41:09;;;;;;;3.07;2.87;;;;;;;13.56;100.00;96904.25;5092521;28;20737;-77
2021/09/29 01:43:37;;;;;;;2.57;2.37;;;;;;;13.37;100.00;96895.78;5092106;28;20192;-77
2021/09/29 01:46:07;;;;;;;3.13;2.60;;;;;;;13.39;100.00;96901.72;5092331;28;20220;-77
2021/09/29 01:48:42;;;;;;;3.23;2.93;;;;;;;13.20;100.00;96898.34;5092620;28;20195;-77
2021/09/29 01:51:10;;;;;;;3.30;3.00;;;;;;;12.93;100.00;96896.75;5092684;28;20275;-77
2021/09/29 01:53:38;;;;;;;3.40;3.07;;;;;;;13.10;100.00;96897.66;5092339;28;20282;-77
2021/09/29 01:56:07;;;;;;;3.93;3.63;;;;;;;13.20;100.00;96897.53;5092208;28;20231;-77
2021/09/29 01:58:34;;;;;;;2.90;2.60;;;;;;;13.17;100.00;96893.38;5091990;28;20223;-78
2021/09/29 02:01:03;;;;;;;3.10;2.90;;;;;;;13.05;100.00;96892.81;5092063;28;20287;-77
2021/09/29 02:03:31;;;;;;;3.63;3.07;;;;;;;12.94;100.00;96890.47;5092053;28;20291;-77
2021/09/29 02:05:58;;;;;;;3.70;3.40;;;;;;;12.94;100.00;96898.38;5092034;28;20765;-77
2021/09/29 02:08:25;;;;;;;4.27;2.53;;;;;;;12.96;100.00;96900.88;5092197;28;20222;-78
2021/09/29 02:10:52;;;;;;;4.93;3.20;;;;;;;13.07;100.00;96896.16;5091955;28;20668;-78
2021/09/29 02:13:19;;;;;;;4.93;3.83;;;;;;;13.08;100.00;96894.31;5091883;28;20576;-78
2021/09/29 02:15:47;;;;;;;3.40;3.03;;;;;;;13.23;100.00;96891.91;5092468;28;20188;-78
2021/09/29 02:18:15;;;;;;;3.90;2.73;;;;;;;13.13;100.00;96891.19;5092187;28;20200;-78
2021/09/29 02:20:43;;;;;;;4.27;3.53;;;;;;;12.95;100.00;96896.56;5091770;28;20226;-78
2021/09/29 02:23:10;;;;;;;3.47;3.17;;;;;;;13.00;100.00;96891.66;5091820;28;20192;-77
2021/09/29 02:25:37;;;;;;;3.87;3.13;;;;;;;12.94;100.00;96887.00;5091836;28;20264;-77
2021/09/29 02:28:05;;;;;;;5.17;2.93;;;;;;;13.09;100.00;96886.28;5091559;28;20193;-77
2021/09/29 02:30:32;;;;;;;3.50;2.93;;;;;;;13.21;100.00;96891.25;5091946;28;20286;-77
2021/09/29 02:33:00;;;;;;;2.83;2.37;;;;;;;13.05;100.00;96895.47;5092034;28;20204;-78
2021/09/29 02:35:28;;;;;;;3.10;2.80;;;;;;;13.07;100.00;96898.78;5091924;28;20196;-77
2021/09/29 02:37:56;;;;;;;3.40;3.10;;;;;;;13.23;100.00;96891.91;5091681;28;20203;-77
2021/09/29 02:40:23;;;;;;;3.70;2.53;;;;;;;13.35;100.00;96893.31;5091830;28;20279;-78
2021/09/29 02:42:51;;;;;;;2.83;2.57;;;;;;;13.39;100.00;96894.63;5091551;28;20208;-78
2021/09/29 02:45:18;;;;;;;4.17;3.87;;;;;;;13.52;100.00;96895.00;5091609;28;20246;-78
2021/09/29 02:47:45;;;;;;;3.93;3.30;;;;;;;13.49;100.00;96895.31;5091733;28;20193;-78
2021/09/29 02:50:13;;;;;;;3.17;2.87;;;;;;;13.56;100.00;96898.97;5091728;28;20196;-78
2021/09/29 02:52:41;;;;;;;2.40;2.20;;;;;;;13.72;100.00;96897.38;5091279;28;20760;-78
2021/09/29 02:55:08;;;;;;;3.00;2.80;;;;;;;13.70;100.00;96894.03;5091631;28;20193;-77
2021/09/29 02:57:36;;;;;;;3.03;2.70;;;;;;;13.53;100.00;96899.28;5091324;28;20267;-77
2021/09/29 03:00:04;;;;;;;2.60;2.40;;;;;;;13.53;100.00;96894.00;5091670;28;20192;-77
2021/09/29 03:02:32;;;;;;;3.00;2.70;;;;;;;13.48;100.00;96895.50;5091190;28;20208;-77
2021/09/29 03:04:59;;;;;;;2.83;2.60;;;;;;;13.52;100.00;96891.53;5091231;28;20684;-77
2021/09/29 03:07:26;;;;;;;4.93;4.53;;;;;;;13.52;100.00;96897.66;5091291;28;20231;-76
2021/09/29 03:09:55;;;;;;;3.80;3.50;;;;;;;13.62;100.00;96896.69;5091525;28;20230;-76
2021/09/29 03:12:22;;;;;;;3.80;3.40;;;;;;;13.55;100.00;96885.94;5094091;28;20734;-77
2021/09/29 03:14:50;;;;;;;3.67;3.30;;;;;;;13.46;100.00;96897.47;5095573;28;20204;-77
2021/09/29 03:17:17;;;;;;;4.03;3.60;;;;;;;13.13;100.00;96907.03;5095461;28;20192;-77
2021/09/29 03:19:44;;;;;;;3.67;3.37;;;;;;;12.91;100.00;96900.50;5095491;28;20219;-77
2021/09/29 03:22:11;;;;;;;4.30;3.90;;;;;;;12.79;100.00;96900.78;5094943;28;20283;-77
2021/09/29 03:24:39;;;;;;;4.07;3.57;;;;;;;12.78;100.00;96898.28;5093881;28;20282;-77
2021/09/29 03:27:08;;;;;;;3.77;3.47;;;;;;;12.80;100.00;96893.72;5094082;28;20219;-77
2021/09/29 03:29:36;;;;;;;3.70;3.30;;;;;;;12.68;100.00;96887.88;5093666;28;20198;-77
2021/09/29 03:32:03;;;;;;;3.90;3.60;;;;;;;12.65;100.00;96890.84;5093949;28;20224;-77
2021/09/29 03:34:30;;;;;;;3.93;3.30;;;;;;;12.56;100.00;96892.56;5094254;28;20199;-77
2021/09/29 03:36:58;;;;;;;4.70;3.43;;;;;;;12.53;100.00;96889.44;5093871;28;20290;-78
2021/09/29 03:39:25;;;;;;;3.97;3.57;;;;;;;12.44;100.00;96891.19;5093349;28;20196;-77
2021/09/29 03:41:52;;;;;;;3.37;3.13;;;;;;;12.44;100.00;96888.56;5093698;28;20192;-77
2021/09/29 03:44:21;;;;;;;3.90;3.60;;;;;;;12.44;100.00;96885.94;5093470;28;20238;-77
2021/09/29 03:46:48;;;;;;;4.03;3.70;;;;;;;12.41;100.00;96888.88;5093812;28;20704;-76
2021/09/29 03:49:15;;;;;;;3.83;3.53;;;;;;;12.41;100.00;96880.97;5093464;28;20188;-76
2021/09/29 03:51:43;;;;;;;2.93;2.73;;;;;;;12.31;100.00;96891.59;5093158;28;20202;-76
2021/09/29 03:54:10;;;;;;;4.10;3.37;;;;;;;12.34;100.00;96890.47;5093297;28;20235;-76
2021/09/29 03:56:37;;;;;;;3.40;3.10;;;;;;;12.34;100.00;96890.47;5092943;28;20234;-77
2021/09/29 03:59:05;;;;;;;3.50;3.20;;;;;;;12.38;100.00;96894.44;5089694;28;20207;-77
2021/09/29 04:01:34;;;;;;;7.73;3.43;;;;;;;12.43;100.00;96892.16;5093335;28;20210;-77
2021/09/29 04:04:01;;;;;;;3.53;3.20;;;;;;;12.52;100.00;96887.78;5093438;28;20203;-77
2021/09/29 04:06:28;;;;;;;3.40;3.10;;;;;;;12.52;100.00;96888.59;5094438;28;20235;-78
2021/09/29 04:08:56;;;;;;;3.83;2.90;;;;;;;12.47;100.00;96892.69;5093904;28;20256;-77
2021/09/29 04:11:23;;;;;;;3.27;2.80;;;;;;;12.38;100.00;96895.28;5094731;28;20230;-77
2021/09/29 04:13:50;;;;;;;4.10;3.27;;;;;;;12.46;100.00;96894.50;5093884;28;20199;-78
2021/09/29 04:16:17;;;;;;;2.87;2.67;;;;;;;12.49;100.00;96888.09;5092814;28;20459;-77
2021/09/29 04:18:46;;;;;;;3.73;3.43;;;;;;;12.51;100.00;96897.50;5092677;28;20287;-77
2021/09/29 04:21:14;;;;;;;5.50;3.77;;;;;;;12.43;100.00;96900.06;5094201;28;20206;-77
2021/09/29 04:23:41;;;;;;;3.07;2.77;;;;;;;12.32;100.00;96901.16;5093711;28;20204;-77
2021/09/29 04:26:09;;;;;;;3.23;3.03;;;;;;;12.37;100.00;96898.06;5093986;28;20235;-77
2021/09/29 04:28:36;;;;;;;3.03;2.83;;;;;;;12.36;100.00;96904.31;5094053;28;20297;-77
2021/09/29 04:31:04;;;;;;;3.27;2.97;;;;;;;12.46;100.00;96906.84;5093790;28;20196;-77
2021/09/29 04:33:32;;;;;;;3.80;3.40;;;;;;;12.31;100.00;96917.97;5093833;28;20242;-77
2021/09/29 04:36:00;;;;;;;3.17;2.87;;;;;;;12.32;100.00;96916.97;5093301;28;20243;-78
2021/09/29 04:38:28;;;;;;;3.50;3.20;;;;;;;12.30;100.00;96916.31;5092948;28;20195;-78
2021/09/29 04:40:55;;;;;;;3.13;2.83;;;;;;;12.22;100.00;96923.31;5093559;28;20228;-78
2021/09/29 04:43:22;;;;;;;3.40;3.10;;;;;;;12.26;100.00;96919.38;5093909;28;20225;-78
2021/09/29 04:45:50;;;;;;;3.30;2.93;;;;;;;12.16;100.00;96924.78;5093614;28;20232;-78
2021/09/29 04:48:18;;;;;;;3.67;3.37;;;;;;;12.21;100.00;96925.13;5093835;28;20188;-77
2021/09/29 04:50:45;;;;;;;3.67;3.37;;;;;;;12.32;100.00;96930.16;5093382;28;20227;-79
2021/09/29 04:53:14;;;;;;;3.60;3.30;;;;;;;12.41;100.00;96917.88;5093435;28;20675;-78
2021/09/29 04:55:41;;;;;;;4.53;2.97;;;;;;;12.42;100.00;96924.78;5093506;28;20203;-78
2021/09/29 04:58:11;;;;;;;4.83;3.57;;;;;;;12.49;100.00;96917.91;5092990;28;20200;-78
2021/09/29 05:00:39;;;;;;;5.97;3.50;;;;;;;12.48;100.00;96926.00;5093436;28;20201;-77
2021/09/29 05:03:08;;;;;;;5.07;3.60;;;;;;;12.57;100.00;96928.53;5093204;28;20199;-78
2021/09/29 05:05:36;;;;;;;4.93;4.30;;;;;;;12.51;100.00;96934.41;5093428;28;20185;-78
2021/09/29 05:08:06;;;;;;;4.43;4.00;;;;;;;12.34;100.00;96935.28;5092856;28;20576;-77
2021/09/29 05:10:45;;;;;;;5.17;3.63;;;;;;;12.35;100.00;96934.28;5093310;28;20192;-77
2021/09/29 05:13:17;;;;;;;5.23;4.67;;;;;;;12.39;100.00;96935.63;5093133;28;20184;-77
2021/09/29 05:15:46;;;;;;;5.00;4.10;;;;;;;12.43;100.00;96931.69;5093467;28;20179;-77
2021/09/29 05:18:14;;;;;;;3.93;3.63;;;;;;;12.44;100.00;96932.56;5092755;28;20282;-78
2021/09/29 05:20:41;;;;;;;4.13;3.67;;;;;;;12.30;100.00;96942.66;5093262;28;20257;-77
2021/09/29 05:23:08;;;;;;;4.30;3.83;;;;;;;12.25;100.00;96946.72;5092854;28;20648;-77
2021/09/29 05:25:37;;;;;;;5.53;4.10;;;;;;;12.29;100.00;96951.53;5092897;28;20202;-78
2021/09/29 05:28:08;;;;;;;4.20;3.90;;;;;;;12.28;100.00;96949.88;5092789;28;20255;-78
2021/09/29 05:30:35;;;;;;;4.63;3.87;;;;;;;12.27;100.00;96956.16;5092878;28;20187;-77
2021/09/29 05:33:02;;;;;;;4.37;3.97;;;;;;;12.36;100.00;96957.03;5092606;28;20195;-78
2021/09/29 05:35:29;;;;;;;4.37;3.83;;;;;;;12.34;100.00;96959.00;5092040;28;20261;-78
2021/09/29 05:37:57;;;;;;;4.83;4.10;;;;;;;12.33;100.00;96960.81;5092536;28;20200;-77
2021/09/29 05:40:24;;;;;;;5.43;4.10;;;;;;;12.25;100.00;96959.91;5092851;28;20237;-78
2021/09/29 05:42:53;;;;;;;4.00;3.67;;;;;;;12.23;100.00;96957.44;5092221;28;20236;-78
2021/09/29 05:45:20;;;;;;;4.67;3.30;;;;;;;12.32;100.00;96961.78;5092501;28;20204;-77
2021/09/29 05:47:47;;;;;;;5.90;4.30;;;;;;;12.31;100.00;96962.75;5092299;28;20716;-77
2021/09/29 05:50:15;;;;;;;4.03;3.67;;;;;;;12.27;100.00;96968.50;5092839;28;20625;-77
2021/09/29 05:52:42;;;;;;;4.40;3.90;;;;;;;12.22;100.00;96968.13;5092854;28;20308;-77
2021/09/29 05:55:11;;;;;;;5.43;4.00;;;;;;;12.09;100.00;96966.69;5092526;28;20608;-77
2021/09/29 05:57:38;;;;;;;4.10;3.70;;;;;;;12.14;100.00;96979.41;5090286;28;20258;-78
2021/09/29 06:00:08;;;;;;;4.10;3.70;;;;;;;12.12;100.00;96966.41;5091659;28;20203;-78
2021/09/29 06:02:35;;;;;;;4.97;4.33;;;;;;;12.18;100.00;96961.50;5092316;28;20202;-77
2021/09/29 06:05:03;;;;;;;3.77;3.47;;;;;;;12.19;100.00;96968.41;5092217;28;20281;-78
2021/09/29 06:07:30;;;;;;;4.77;4.37;;;;;;;12.18;100.00;96964.13;5092291;28;20281;-77
2021/09/29 06:09:57;;;;;;;3.90;3.50;;;;;;;12.11;100.00;96969.19;5092186;28;20198;-77
2021/09/29 06:12:25;;;;;;;4.23;3.90;;;;;;;12.12;100.00;96970.81;5092557;28;20202;-77
2021/09/29 06:14:53;;;;;;;5.40;4.40;;;;;;;12.16;100.00;96969.56;5091864;28;20249;-77
2021/09/29 06:17:24;;;;;;;4.60;4.20;;;;;;;12.12;100.00;96979.59;5092105;28;20232;-77
2021/09/29 06:19:52;;;;;;;4.30;3.90;;;;;;;12.23;100.00;96978.53;5092401;28;20529;-77
2021/09/29 06:22:20;;;;;;;4.50;3.87;;;;;;;12.16;100.00;96979.25;5091941;28;20196;-78
2021/09/29 06:24:47;;;;;;;4.10;3.80;;;;;;;12.14;100.00;96985.50;5091660;28;20236;-77
2021/09/29 06:27:15;;;;;;;4.63;4.20;;;;;;;12.10;100.00;96986.78;5091959;28;20701;-78
2021/09/29 06:29:42;;;;;;;6.43;4.10;;;;;;;12.14;100.00;96992.59;5091849;28;20287;-78
2021/09/29 06:32:11;;;;;;;4.90;4.50;;;;;;;12.12;100.00;96987.50;5091916;28;20717;-79
2021/09/29 06:34:39;;;;;;;5.43;4.90;;;;;;;12.19;100.00;96997.41;5091832;28;20201;-78
2021/09/29 06:37:07;;;;;;;5.23;4.83;;;;;;;12.21;100.00;96990.19;5091625;28;20224;-78
2021/09/29 06:39:34;;;;;;;5.00;4.57;;;;;;;12.20;100.00;96993.81;5091743;28;20673;-78
2021/09/29 06:42:01;;;;;;;4.73;4.33;;;;;;;12.21;100.00;96998.91;5091829;28;20197;-78
2021/09/29 06:44:31;;;;;;;5.47;4.27;;;;;;;12.26;100.00;96994.03;5091663;28;20673;-78
2021/09/29 06:47:01;;;;;;;4.40;4.00;;;;;;;12.12;100.00;96992.75;5096035;28;20322;-78
2021/09/29 06:49:28;;;;;;;5.00;4.43;;;;;;;12.23;100.00;97004.88;5096037;28;20203;-78
2021/09/29 06:51:57;;;;;;;4.80;4.40;;;;;;;12.26;100.00;97001.94;5096323;28;20217;-78
2021/09/29 06:54:24;;;;;;;4.43;4.13;;;;;;;12.24;100.00;97000.44;5095643;28;20288;-78
2021/09/29 06:56:51;;;;;;;5.10;4.43;;;;;;;12.19;100.00;97002.66;5095736;28;20222;-78
2021/09/29 06:59:19;;;;;;;4.63;4.20;;;;;;;12.24;100.00;97001.25;5095960;28;20201;-78
2021/09/29 07:01:47;;;;;;;4.37;3.73;;;;;;;12.21;100.00;97001.56;5095759;28;20662;-78
2021/09/29 07:04:14;;;;;;;4.97;4.03;;;;;;;12.19;100.00;97002.66;5095247;28;20573;-78
2021/09/29 07:06:41;;;;;;;4.73;4.33;;;;;;;12.27;100.00;97002.75;5095560;28;20678;-78
2021/09/29 07:09:10;;;;;;;8.13;7.30;;;;;;;12.45;100.00;97003.56;5095396;28;20291;-78
2021/09/29 07:11:37;;;;;;;5.07;4.17;;;;;;;12.40;100.00;96999.72;5095574;28;20289;-78
2021/09/29 07:14:04;;;;;;;4.50;4.10;;;;;;;12.51;100.00;97000.34;5095171;28;20207;-78
2021/09/29 07:16:32;;;;;;;5.23;4.73;;;;;;;12.52;100.00;97009.06;5095440;28;20694;-78
2021/09/29 07:19:02;;;;;;;5.80;4.97;;;;;;;12.54;100.00;97013.22;5095501;28;20196;-78
2021/09/29 07:21:29;;;;;;;3.50;3.20;;;;;;;12.44;100.00;97009.84;5095121;28;20190;-78
2021/09/29 07:23:57;;;;;;;4.70;4.17;;;;;;;12.44;100.00;97017.75;5095043;28;20286;-78
2021/09/29 07:26:26;;;;;;;4.17;3.80;;;;;;;12.63;100.00;97019.38;5095615;28;20201;-78
2021/09/29 07:28:53;;;;;;;4.37;3.97;;;;;;;12.69;100.00;97025.84;5094974;28;20706;-78
2021/09/29 07:31:20;;;;;;;3.90;3.57;;;;;;;12.70;100.00;97023.06;5094974;28;20291;-78
2021/09/29 07:33:47;;;;;;;4.53;4.20;;;;;;;12.61;100.00;97026.63;5094973;28;20200;-78
2021/09/29 07:36:15;;;;;;;3.93;3.53;;;;;;;12.60;100.00;97030.22;5095058;28;20706;-78
2021/09/29 07:38:42;;;;;;;4.13;3.83;;;;;;;12.48;100.00;97034.09;5094779;28;20199;-78
2021/09/29 07:41:09;;;;;;;4.17;3.77;;;;;;;12.57;100.00;97036.66;5094777;28;20200;-78
2021/09/29 07:43:39;;;;;;;4.43;4.13;;;;;;;12.66;100.00;97032.25;5094761;28;20200;-78
2021/09/29 07:46:06;;;;;;;3.40;3.20;;;;;;;12.69;100.00;97036.41;5094894;28;20242;-78
2021/09/29 07:48:33;;;;;;;3.60;3.30;;;;;;;12.69;100.00;97036.41;5094852;28;20222;-78
2021/09/29 07:51:02;;;;;;;4.13;3.83;;;;;;;12.83;100.00;97041.94;5094602;28;20197;-78
2021/09/29 07:53:30;;;;;;;5.43;3.27;;;;;;;12.80;100.00;97041.44;5094869;28;20231;-78
2021/09/29 07:55:57;;;;;;;4.60;4.20;;;;;;;12.78;100.00;97046.88;5094598;28;20279;-78
2021/09/29 07:58:26;;;;;;;4.30;3.47;;;;;;;12.75;100.00;97041.06;5093919;28;20181;-78
2021/09/29 08:00:55;;;;;;;4.67;4.23;;;;;;;12.78;100.00;97048.66;5094658;28;20249;-78
2021/09/29 08:03:22;;;;;;;4.07;3.73;;;;;;;12.88;100.00;97054.66;5094640;28;20200;-78
2021/09/29 08:05:52;;;;;;;3.90;3.57;;;;;;;13.00;100.00;97053.44;5094534;28;20235;-78
2021/09/29 08:08:19;;;;;;;4.07;3.70;;;;;;;13.02;100.00;97054.13;5094698;28;20220;-78
2021/09/29 08:10:47;;;;;;;4.77;3.20;;;;;;;13.04;100.00;97052.16;5094497;28;20195;-78
2021/09/29 08:13:14;;;;;;;4.03;3.73;;;;;;;13.15;100.00;97056.34;5094513;28;20609;-78
2021/09/29 08:15:41;;;;;;;4.70;3.40;;;;;;;13.14;100.00;97053.88;5094422;28;20220;-78
2021/09/29 08:18:10;;;;;;;4.27;3.97;;;;;;;13.23;100.00;97053.78;5094453;28;20188;-78
2021/09/29 08:20:38;;;;;;;5.13;3.93;;;;;;;13.23;100.00;97052.91;5094242;28;20196;-79
2021/09/29 08:23:06;;;;;;;4.73;4.40;;;;;;;13.21;100.00;97054.91;5094150;28;20197;-78
2021/09/29 08:31:07;;;;;;;5.40;4.90;;;;;;;13.25;100.00;97046.53;5080808;28;20201;-78
2021/09/29 08:33:52;;;;;;;6.23;4.40;;;;;;;13.45;100.00;97054.25;5093917;28;20184;-79
2021/09/29 08:36:27;;;;;;;5.63;5.13;;;;;;;13.33;100.00;97051.03;5093942;28;20559;-78
2021/09/29 08:38:57;;;;;;;6.30;5.70;;;;;;;13.23;100.00;97058.19;5093899;28;20812;-78
2021/09/29 08:41:39;;;;;;;5.67;5.07;;;;;;;13.26;100.00;97056.09;5094019;28;20688;-78
2021/09/29 08:44:10;;;;;;;5.67;5.17;;;;;;;13.15;100.00;97052.88;5093948;28;20641;-78
2021/09/29 08:46:49;;;;;;;7.20;5.40;;;;;;;13.14;100.00;97054.69;5094096;28;20188;-79
2021/09/29 08:49:24;;;;;;;6.23;4.70;;;;;;;13.07;100.00;97070.31;5093673;28;20254;-78
2021/09/29 08:52:11;;;;;;;10.60;5.53;;;;;;;13.13;100.00;97071.53;5093701;28;20205;-78
2021/09/29 08:55:05;;;;;;;6.07;5.13;;;;;;;13.03;100.00;97065.53;5093520;28;20192;-78
2021/09/29 09:16:57;;;;;;;7.27;4.40;;;;;;;13.19;100.00;97070.88;5093509;28;20184;-78
2021/09/29 09:19:29;;;;;;;5.93;4.23;;;;;;;13.31;100.00;97066.22;5092744;28;20759;-78
2021/09/29 09:22:00;;;;;;;4.27;3.70;;;;;;;13.37;100.00;97062.09;5093022;28;20641;-78
2021/09/29 09:24:30;;;;;;;3.83;3.53;;;;;;;13.52;100.00;97071.94;5092848;28;20223;-78
2021/09/29 09:26:59;;;;;;;4.10;3.80;;;;;;;13.53;100.00;97076.22;5093140;28;20199;-78
2021/09/29 09:29:26;;;;;;;3.63;3.33;;;;;;;13.34;100.00;97073.84;5092394;28;20311;-78
2021/09/29 09:31:54;;;;;;;3.83;3.53;;;;;;;13.27;100.00;97067.53;5093272;28;20199;-78
2021/09/29 09:34:27;;;;;;;3.87;3.57;;;;;;;13.22;100.00;97065.28;5092595;28;20374;-78
2021/09/29 09:36:56;;;;;;;4.67;4.00;;;;;;;13.33;100.00;97058.97;5092805;28;20238;-78
2021/09/29 09:39:25;;;;;;;5.93;4.10;;;;;;;13.29;100.00;97060.25;5092417;28;20199;-78
2021/09/29 09:41:56;;;;;;;3.87;3.17;;;;;;;13.31;100.00;97063.59;5092999;28;20204;-78
2021/09/29 09:44:28;;;;;;;5.30;4.10;;;;;;;13.48;100.00;97067.16;5092579;28;20312;-78
2021/09/29 09:47:02;;;;;;;5.00;3.47;;;;;;;13.42;100.00;97073.88;5092946;28;20184;-78
2021/09/29 09:49:29;;;;;;;4.23;3.93;;;;;;;13.41;100.00;97076.69;5092612;28;20205;-78
2021/09/29 09:52:00;;;;;;;5.13;3.70;;;;;;;13.29;100.00;97076.09;5092580;28;20250;-78
2021/09/29 09:54:39;;;;;;;4.27;3.87;;;;;;;13.46;100.00;97074.38;5092914;28;20184;-78
2021/09/29 09:57:18;;;;;;;3.30;3.07;;;;;;;13.43;100.00;97082.63;5092404;28;20323;-78
2021/09/29 09:59:49;;;;;;;3.70;3.40;;;;;;;13.63;100.00;97073.47;5092395;28;20184;-78
2021/09/29 10:02:16;;;;;;;7.80;6.40;;;;;;;13.57;100.00;97068.81;5092427;28;20199;-78
2021/09/29 10:04:43;;;;;;;6.70;5.77;;;;;;;13.88;100.00;97077.06;5092266;28;20196;-78
2021/09/29 10:07:11;;;;;;;8.70;4.40;;;;;;;14.04;100.00;97081.59;5092230;28;20764;-78
2021/09/29 10:09:42;;;;;;;4.90;4.50;;;;;;;14.08;100.00;97082.09;5092364;28;20227;-79
2021/09/29 10:12:28;;;;;;;4.20;3.90;;;;;;;14.13;100.00;97079.78;5092062;28;20241;-78
2021/09/29 10:23:18;;;;;;;4.90;4.40;;;;;;;13.79;100.00;97076.22;5092157;28;20188;-78
2021/09/29 10:26:09;;;;;;;7.07;4.60;;;;;;;13.86;100.00;97071.13;5092356;28;20652;-79
2021/09/29 10:28:38;;;;;;;4.80;4.40;;;;;;;13.88;100.00;97077.06;5091955;28;20291;-78
2021/09/29 10:31:17;;;;;;;5.07;4.57;;;;;;;13.97;100.00;97070.81;5091886;28;20199;-78
2021/09/29 10:33:56;;;;;;;4.30;4.00;;;;;;;13.92;100.00;97074.91;5091808;28;20641;-78
2021/09/29 10:36:41;;;;;;;4.57;4.23;;;;;;;13.86;100.00;97072.94;5092273;28;20184;-78
2021/09/29 10:42:03;;;;;;;5.23;4.47;;;;;;;13.89;100.00;97067.31;5092076;28;20183;-78
2021/09/29 10:45:08;;;;;;;4.50;4.10;;;;;;;13.91;100.00;97071.44;5092012;28;20303;-78
2021/09/29 10:47:47;;;;;;;10.30;3.97;;;;;;;13.92;100.00;97064.34;5091486;28;20199;-78
2021/09/29 10:50:49;;;;;;;5.43;4.70;;;;;;;13.71;100.00;97065.59;5091865;28;20283;-78
2021/09/29 11:29:39;;;;;;;6.07;4.80;;;;;;;13.72;100.00;97051.41;5091290;28;20203;-78
2021/09/29 11:32:21;;;;;;;6.00;4.73;;;;;;;13.65;100.00;97049.56;5092612;28;20273;-78
2021/09/29 11:34:49;;;;;;;6.10;5.50;;;;;;;13.73;100.00;97047.78;5095486;28;20620;-78
2021/09/29 11:37:58;;;;;;;12.80;5.20;;;;;;;13.71;100.00;97043.63;5094798;28;20203;-78
2021/09/29 12:08:36;;;;;;;6.63;4.53;;;;;;;14.01;100.00;97047.53;5094526;28;20590;-78
2021/09/29 12:11:07;;;;;;;6.87;4.90;;;;;;;13.99;100.00;97055.63;5094481;28;20291;-78
2021/09/29 12:13:44;;;;;;;5.63;4.53;;;;;;;14.08;100.00;97055.66;5094051;28;20191;-78
2021/09/29 12:16:12;;;;;;;5.50;4.97;;;;;;;14.02;100.00;97062.41;5094436;28;20216;-78
2021/09/29 12:18:40;;;;;;;6.47;4.70;;;;;;;14.04;100.00;97055.97;5094077;28;20188;-78
2021/09/29 12:21:10;;;;;;;4.73;4.33;;;;;;;14.06;100.00;97055.78;5094247;28;20193;-78
2021/09/29 12:23:37;;;;;;;7.83;4.80;;;;;;;14.12;100.00;97063.09;5093807;28;20685;-78
2021/09/29 12:26:23;;;;;;;6.53;5.53;;;;;;;14.25;100.00;97058.16;5094247;28;20279;-78
2021/09/29 12:29:08;;;;;;;6.07;4.67;;;;;;;14.19;100.00;97053.53;5094247;28;20204;-79
2021/09/29 12:31:54;;;;;;;4.60;4.20;;;;;;;14.19;100.00;97048.22;5093907;28;20184;-78
2021/09/29 12:37:11;;;;;;;6.37;4.97;;;;;;;14.26;100.00;97048.41;5084970;28;20192;-78
2021/09/29 12:39:40;;;;;;;6.80;4.43;;;;;;;14.22;100.00;97049.72;5093923;28;20284;-78
2021/09/29 12:42:08;;;;;;;9.00;4.63;;;;;;;14.25;100.00;97049.41;5093802;28;20196;-78
2021/09/29 12:44:48;;;;;;;6.53;4.50;;;;;;;14.14;100.00;97047.91;5093531;28;20193;-78
2021/09/29 12:47:21;;;;;;;6.00;4.40;;;;;;;14.04;100.00;97045.41;5094010;28;20562;-78
2021/09/29 12:49:48;;;;;;;5.87;4.43;;;;;;;14.03;100.00;97042.94;5093390;28;20224;-78
2021/09/29 12:52:28;;;;;;;4.20;3.90;;;;;;;14.09;100.00;97044.09;5093581;28;20196;-78
2021/09/29 12:54:57;;;;;;;5.10;4.70;;;;;;;14.26;100.00;97043.13;5094027;28;20191;-78
2021/09/29 12:57:27;;;;;;;7.03;5.50;;;;;;;14.33;100.00;97043.31;5093246;28;20260;-78
2021/09/29 12:59:55;;;;;;;4.77;4.37;;;;;;;14.38;100.00;97043.66;5093254;28;20196;-78
2021/09/29 13:02:23;;;;;;;4.80;4.40;;;;;;;14.54;100.00;97050.81;5093538;28;20622;-78
2021/09/29 13:04:50;;;;;;;7.27;4.77;;;;;;;14.68;100.00;97050.13;5093727;28;20228;-78
2021/09/29 13:07:17;;;;;;;4.73;4.23;;;;;;;14.69;100.00;97049.16;5092969;28;20198;-78
2021/09/29 13:09:46;;;;;;;6.93;4.60;;;;;;;14.68;100.00;97050.13;5093173;28;20220;-78
2021/09/29 13:12:13;;;;;;;6.77;4.60;;;;;;;14.87;100.00;97051.66;5093216;28;20197;-78
2021/09/29 13:14:40;;;;;;;4.47;4.03;;;;;;;14.88;100.00;97051.47;5093186;28;20196;-78
2021/09/29 13:17:08;;;;;;;5.80;5.07;;;;;;;15.02;100.00;97054.44;5092786;28;20229;-78
2021/09/29 13:19:41;;;;;;;4.83;4.17;;;;;;;14.99;100.00;97055.59;5093512;28;20196;-78